sensor_id;sensor_type;location;lat;lon;timestamp;pressure;altitude;pressure_sealevel;temperature;humidity
34297;BME280;20564;42.902;25.336;2023-03-31T00:01:11;97126.13;;;4.86;69.24
34297;BME280;20564;42.902;25.336;2023-03-31T00:04:13;97128.34;;;4.79;69.40
34297;BME280;20564;42.902;25.336;2023-03-31T00:07:02;97123.03;;;4.68;69.12
34297;BME280;20564;42.902;25.336;2023-03-31T00:09:37;97121.16;;;4.57;69.96
34297;BME280;20564;42.902;25.336;2023-03-31T00:12:18;97113.75;;;4.51;70.70
34297;BME280;20564;42.902;25.336;2023-03-31T00:14:57;97106.44;;;4.44;70.80
34297;BME280;20564;42.902;25.336;2023-03-31T00:18:01;97111.03;;;4.40;71.43
34297;BME280;20564;42.902;25.336;2023-03-31T00:20:50;97122.50;;;4.38;71.56
34297;BME280;20564;42.902;25.336;2023-03-31T00:23:32;97114.16;;;4.32;70.58
34297;BME280;20564;42.902;25.336;2023-03-31T00:26:02;97106.03;;;4.37;71.06
34297;BME280;20564;42.902;25.336;2023-03-31T00:28:49;97104.88;;;4.28;71.21
34297;BME280;20564;42.902;25.336;2023-03-31T00:31:24;97100.41;;;4.30;71.95
34297;BME280;20564;42.902;25.336;2023-03-31T00:34:13;97097.47;;;4.22;70.97
34297;BME280;20564;42.902;25.336;2023-03-31T00:36:51;97101.84;;;4.22;71.45
34297;BME280;20564;42.902;25.336;2023-03-31T00:39:33;97107.47;;;4.16;71.76
34297;BME280;20564;42.902;25.336;2023-03-31T00:42:04;97100.81;;;4.11;71.54
34297;BME280;20564;42.902;25.336;2023-03-31T00:48:10;97083.28;;;4.01;72.49
34297;BME280;20564;42.902;25.336;2023-03-31T00:51:03;97080.59;;;4.02;71.86
34297;BME280;20564;42.902;25.336;2023-03-31T00:53:40;97076.41;;;4.00;72.71
34297;BME280;20564;42.902;25.336;2023-03-31T00:56:12;97064.97;;;4.02;72.70
34297;BME280;20564;42.902;25.336;2023-03-31T00:58:41;97065.78;;;4.03;71.89
34297;BME280;20564;42.902;25.336;2023-03-31T01:01:16;97060.56;;;3.90;73.57
34297;BME280;20564;42.902;25.336;2023-03-31T01:03:47;97055.91;;;3.95;72.80
34297;BME280;20564;42.902;25.336;2023-03-31T01:06:19;97065.38;;;3.96;72.99
34297;BME280;20564;42.902;25.336;2023-03-31T01:08:48;97059.22;;;3.97;73.50
34297;BME280;20564;42.902;25.336;2023-03-31T01:11:25;97054.75;;;3.99;73.61
34297;BME280;20564;42.902;25.336;2023-03-31T01:13:54;97049.53;;;3.99;73.73
34297;BME280;20564;42.902;25.336;2023-03-31T01:16:23;97044.13;;;4.02;73.96
34297;BME280;20564;42.902;25.336;2023-03-31T01:18:53;97052.66;;;4.04;74.45
34297;BME280;20564;42.902;25.336;2023-03-31T01:22:06;97037.78;;;4.06;74.07
34297;BME280;20564;42.902;25.336;2023-03-31T01:40:09;97025.56;;;4.32;74.43
34297;BME280;20564;42.902;25.336;2023-03-31T01:43:04;97024.22;;;4.27;74.53
34297;BME280;20564;42.902;25.336;2023-03-31T01:50:59;97005.34;;;4.36;73.15
34297;BME280;20564;42.902;25.336;2023-03-31T01:56:26;96997.72;;;4.46;73.21
34297;BME280;20564;42.902;25.336;2023-03-31T01:59:26;96991.78;;;4.44;73.42
34297;BME280;20564;42.902;25.336;2023-03-31T02:02:08;96996.34;;;4.53;74.48
34297;BME280;20564;42.902;25.336;2023-03-31T02:04:49;96988.66;;;4.51;73.94
34297;BME280;20564;42.902;25.336;2023-03-31T02:07:32;96996.03;;;4.57;73.94
34297;BME280;20564;42.902;25.336;2023-03-31T02:10:05;96992.38;;;4.60;74.11
34297;BME280;20564;42.902;25.336;2023-03-31T02:12:40;96991.31;;;4.63;72.98
34297;BME280;20564;42.902;25.336;2023-03-31T02:15:13;96991.53;;;4.59;74.03
34297;BME280;20564;42.902;25.336;2023-03-31T02:17:48;96990.50;;;4.62;73.83
34297;BME280;20564;42.902;25.336;2023-03-31T02:20:22;96990.38;;;4.64;73.86
34297;BME280;20564;42.902;25.336;2023-03-31T02:22:55;97000.53;;;4.55;74.34
34297;BME280;20564;42.902;25.336;2023-03-31T02:25:35;96996.25;;;4.54;73.51
34297;BME280;20564;42.902;25.336;2023-03-31T02:31:22;96999.56;;;4.56;75.58
34297;BME280;20564;42.902;25.336;2023-03-31T02:34:05;96998.75;;;4.56;74.43
34297;BME280;20564;42.902;25.336;2023-03-31T02:36:34;97004.78;;;4.56;74.63
34297;BME280;20564;42.902;25.336;2023-03-31T02:39:07;97004.47;;;4.61;73.94
34297;BME280;20564;42.902;25.336;2023-03-31T02:41:45;97011.75;;;4.69;73.89
34297;BME280;20564;42.902;25.336;2023-03-31T02:44:22;97001.53;;;4.66;74.86
34297;BME280;20564;42.902;25.336;2023-03-31T02:47:10;97008.81;;;4.73;74.22
34297;BME280;20564;42.902;25.336;2023-03-31T02:49:52;97010.25;;;4.77;73.60
34297;BME280;20564;42.902;25.336;2023-03-31T03:01:52;97020.69;;;4.90;75.84
34297;BME280;20564;42.902;25.336;2023-03-31T03:05:24;97024.19;;;4.89;77.25
34297;BME280;20564;42.902;25.336;2023-03-31T03:20:35;97050.81;;;4.81;76.87
34297;BME280;20564;42.902;25.336;2023-03-31T03:23:18;97041.84;;;4.86;75.64
34297;BME280;20564;42.902;25.336;2023-03-31T03:25:52;97050.41;;;4.88;76.80
34297;BME280;20564;42.902;25.336;2023-03-31T03:28:34;97058.50;;;4.96;76.12
34297;BME280;20564;42.902;25.336;2023-03-31T03:31:24;97063.38;;;5.00;76.62
34297;BME280;20564;42.902;25.336;2023-03-31T03:37:16;97074.66;;;5.01;75.99
34297;BME280;20564;42.902;25.336;2023-03-31T03:40:08;97065.44;;;5.08;75.88
34297;BME280;20564;42.902;25.336;2023-03-31T03:42:45;97080.97;;;5.22;74.61
34297;BME280;20564;42.902;25.336;2023-03-31T03:45:35;97081.28;;;5.18;76.53
34297;BME280;20564;42.902;25.336;2023-03-31T03:48:18;97081.50;;;5.15;77.13
34297;BME280;20564;42.902;25.336;2023-03-31T03:50:45;97088.16;;;5.19;76.73
34297;BME280;20564;42.902;25.336;2023-03-31T03:53:14;97082.03;;;5.20;77.74
34297;BME280;20564;42.902;25.336;2023-03-31T03:55:41;97089.13;;;5.18;77.53
34297;BME280;20564;42.902;25.336;2023-03-31T03:58:08;97100.09;;;5.23;77.18
34297;BME280;20564;42.902;25.336;2023-03-31T04:00:34;97099.63;;;5.29;75.92
34297;BME280;20564;42.902;25.336;2023-03-31T04:03:01;97102.97;;;5.31;75.80
34297;BME280;20564;42.902;25.336;2023-03-31T04:05:30;97110.69;;;5.32;76.31
34297;BME280;20564;42.902;25.336;2023-03-31T04:07:57;97115.47;;;5.39;76.49
34297;BME280;20564;42.902;25.336;2023-03-31T04:10:27;97116.28;;;5.39;77.09
34297;BME280;20564;42.902;25.336;2023-03-31T04:12:55;97118.47;;;5.45;78.39
34297;BME280;20564;42.902;25.336;2023-03-31T04:15:21;97119.31;;;5.46;79.11
34297;BME280;20564;42.902;25.336;2023-03-31T04:17:48;97120.13;;;5.46;80.12
34297;BME280;20564;42.902;25.336;2023-03-31T04:20:20;97124.63;;;5.44;80.16
34297;BME280;20564;42.902;25.336;2023-03-31T04:22:47;97117.41;;;5.48;80.20
34297;BME280;20564;42.902;25.336;2023-03-31T04:25:19;97118.22;;;5.48;80.61
34297;BME280;20564;42.902;25.336;2023-03-31T04:27:50;97119.09;;;5.49;81.02
34297;BME280;20564;42.902;25.336;2023-03-31T04:30:25;97112.09;;;5.49;82.22
34297;BME280;20564;42.902;25.336;2023-03-31T04:33:01;97118.75;;;5.53;82.10
34297;BME280;20564;42.902;25.336;2023-03-31T04:35:30;97113.53;;;5.53;82.11
34297;BME280;20564;42.902;25.336;2023-03-31T04:38:22;97112.91;;;5.50;84.30
34297;BME280;20564;42.902;25.336;2023-03-31T04:40:51;97116.00;;;5.55;83.44
34297;BME280;20564;42.902;25.336;2023-03-31T04:43:20;97115.19;;;5.54;83.68
34297;BME280;20564;42.902;25.336;2023-03-31T04:45:47;97109.53;;;5.61;82.76
34297;BME280;20564;42.902;25.336;2023-03-31T04:48:14;97110.53;;;5.71;81.73
34297;BME280;20564;42.902;25.336;2023-03-31T04:50:45;97106.28;;;5.81;82.20
34297;BME280;20564;42.902;25.336;2023-03-31T04:53:12;97111.28;;;5.84;82.21
34297;BME280;20564;42.902;25.336;2023-03-31T04:55:49;97100.63;;;5.87;81.17
34297;BME280;20564;42.902;25.336;2023-03-31T04:58:16;97093.91;;;5.96;81.18
34297;BME280;20564;42.902;25.336;2023-03-31T05:00:43;97099.72;;;5.99;81.52
34297;BME280;20564;42.902;25.336;2023-03-31T05:03:13;97088.47;;;6.10;81.37
34297;BME280;20564;42.902;25.336;2023-03-31T05:05:46;97080.78;;;6.20;81.85
34297;BME280;20564;42.902;25.336;2023-03-31T05:08:13;97082.59;;;6.31;80.15
34297;BME280;20564;42.902;25.336;2023-03-31T05:10:43;97081.53;;;6.33;79.00
34297;BME280;20564;42.902;25.336;2023-03-31T05:13:17;97074.88;;;6.29;77.45
34297;BME280;20564;42.902;25.336;2023-03-31T05:15:44;97067.66;;;6.33;78.36
34297;BME280;20564;42.902;25.336;2023-03-31T05:18:16;97066.09;;;6.52;79.86
34297;BME280;20564;42.902;25.336;2023-03-31T05:20:43;97051.84;;;6.57;79.92
34297;BME280;20564;42.902;25.336;2023-03-31T05:23:11;97055.66;;;6.64;80.08
34297;BME280;20564;42.902;25.336;2023-03-31T05:25:39;97058.13;;;6.65;79.85
34297;BME280;20564;42.902;25.336;2023-03-31T05:28:09;97056.09;;;6.69;79.72
34297;BME280;20564;42.902;25.336;2023-03-31T05:30:36;97055.41;;;6.78;82.14
34297;BME280;20564;42.902;25.336;2023-03-31T05:33:06;97052.56;;;6.81;81.43
34297;BME280;20564;42.902;25.336;2023-03-31T05:35:33;97051.81;;;6.90;82.29
34297;BME280;20564;42.902;25.336;2023-03-31T05:38:06;97054.44;;;6.90;83.60
34297;BME280;20564;42.902;25.336;2023-03-31T05:40:34;97049.44;;;6.87;84.87
34297;BME280;20564;42.902;25.336;2023-03-31T05:43:01;97041.13;;;6.82;87.69
34297;BME280;20564;42.902;25.336;2023-03-31T05:45:29;97043.59;;;6.84;89.02
34297;BME280;20564;42.902;25.336;2023-03-31T05:48:02;97041.72;;;6.86;91.12
34297;BME280;20564;42.902;25.336;2023-03-31T05:50:33;97038.97;;;6.87;89.37
34297;BME280;20564;42.902;25.336;2023-03-31T05:53:04;97032.56;;;6.91;88.86
34297;BME280;20564;42.902;25.336;2023-03-31T05:55:35;97036.84;;;6.92;90.28
34297;BME280;20564;42.902;25.336;2023-03-31T05:58:04;97030.28;;;6.98;90.89
34297;BME280;20564;42.902;25.336;2023-03-31T06:00:32;97026.34;;;7.04;93.60
34297;BME280;20564;42.902;25.336;2023-03-31T06:03:04;97019.31;;;7.04;93.58
34297;BME280;20564;42.902;25.336;2023-03-31T06:05:34;97023.97;;;7.00;94.17
34297;BME280;20564;42.902;25.336;2023-03-31T06:08:01;97021.72;;;7.07;93.58
34297;BME280;20564;42.902;25.336;2023-03-31T06:10:29;97026.56;;;7.12;93.19
34297;BME280;20564;42.902;25.336;2023-03-31T06:12:56;97015.03;;;7.14;93.30
34297;BME280;20564;42.902;25.336;2023-03-31T06:15:23;97012.78;;;7.10;94.03
34297;BME280;20564;42.902;25.336;2023-03-31T06:18:01;97016.34;;;7.09;94.52
34297;BME280;20564;42.902;25.336;2023-03-31T06:20:28;97022.28;;;7.11;93.25
34297;BME280;20564;42.902;25.336;2023-03-31T06:22:55;97020.59;;;7.21;94.79
34297;BME280;20564;42.902;25.336;2023-03-31T06:25:25;97016.19;;;7.21;96.43
34297;BME280;20564;42.902;25.336;2023-03-31T06:28:09;97020.13;;;7.16;100.00
34297;BME280;20564;42.902;25.336;2023-03-31T06:30:40;97013.63;;;7.10;100.00
34297;BME280;20564;42.902;25.336;2023-03-31T06:33:07;97024.44;;;7.17;100.00
34297;BME280;20564;42.902;25.336;2023-03-31T06:35:39;97031.31;;;7.18;100.00
34297;BME280;20564;42.902;25.336;2023-03-31T06:38:07;97021.81;;;7.17;100.00
34297;BME280;20564;42.902;25.336;2023-03-31T06:40:36;97026.09;;;7.18;100.00
34297;BME280;20564;42.902;25.336;2023-03-31T06:43:06;97031.06;;;7.21;100.00
34297;BME280;20564;42.902;25.336;2023-03-31T06:45:35;97023.91;;;7.23;100.00
34297;BME280;20564;42.902;25.336;2023-03-31T06:48:03;97033.31;;;7.25;100.00
34297;BME280;20564;42.902;25.336;2023-03-31T06:50:31;97031.25;;;7.40;100.00
34297;BME280;20564;42.902;25.336;2023-03-31T06:53:02;97020.28;;;7.46;100.00
34297;BME280;20564;42.902;25.336;2023-03-31T06:55:30;97016.69;;;7.47;100.00
34297;BME280;20564;42.902;25.336;2023-03-31T06:57:59;97016.69;;;7.47;100.00
34297;BME280;20564;42.902;25.336;2023-03-31T07:00:31;97023.94;;;7.55;100.00
34297;BME280;20564;42.902;25.336;2023-03-31T07:02:58;97011.59;;;7.67;100.00
34297;BME280;20564;42.902;25.336;2023-03-31T07:05:29;97023.38;;;7.72;100.00
34297;BME280;20564;42.902;25.336;2023-03-31T07:07:57;97021.09;;;7.79;100.00
34297;BME280;20564;42.902;25.336;2023-03-31T07:10:27;97012.69;;;7.85;100.00
34297;BME280;20564;42.902;25.336;2023-03-31T07:12:58;97020.31;;;7.88;100.00
34297;BME280;20564;42.902;25.336;2023-03-31T07:15:31;97018.53;;;7.89;100.00
34297;BME280;20564;42.902;25.336;2023-03-31T07:17:58;97011.94;;;7.94;100.00
34297;BME280;20564;42.902;25.336;2023-03-31T07:20:29;97005.41;;;8.10;100.00
34297;BME280;20564;42.902;25.336;2023-03-31T07:22:57;96995.75;;;8.10;100.00
34297;BME280;20564;42.902;25.336;2023-03-31T07:25:47;97001.47;;;8.15;100.00
34297;BME280;20564;42.902;25.336;2023-03-31T07:28:33;97000.09;;;8.21;100.00
34297;BME280;20564;42.902;25.336;2023-03-31T07:31:01;96996.72;;;8.30;100.00
34297;BME280;20564;42.902;25.336;2023-03-31T07:33:29;96985.25;;;8.31;100.00
34297;BME280;20564;42.902;25.336;2023-03-31T07:35:57;96988.22;;;8.38;99.51
34297;BME280;20564;42.902;25.336;2023-03-31T07:38:39;96980.19;;;8.39;99.04
34297;BME280;20564;42.902;25.336;2023-03-31T07:41:11;96977.38;;;8.52;98.09
34297;BME280;20564;42.902;25.336;2023-03-31T07:43:40;96973.53;;;8.66;98.18
34297;BME280;20564;42.902;25.336;2023-03-31T07:46:18;96969.97;;;8.77;98.57
34297;BME280;20564;42.902;25.336;2023-03-31T07:48:55;96967.78;;;8.91;98.26
34297;BME280;20564;42.902;25.336;2023-03-31T07:51:25;96957.88;;;9.05;96.97
34297;BME280;20564;42.902;25.336;2023-03-31T07:53:53;96954.31;;;9.25;90.96
34297;BME280;20564;42.902;25.336;2023-03-31T07:56:24;96959.00;;;9.51;86.30
34297;BME280;20564;42.902;25.336;2023-03-31T07:58:53;96959.09;;;9.69;86.10
34297;BME280;20564;42.902;25.336;2023-03-31T08:01:23;96953.97;;;9.86;84.95
34297;BME280;20564;42.902;25.336;2023-03-31T08:03:52;96949.09;;;10.01;84.59
34297;BME280;20564;42.902;25.336;2023-03-31T08:06:23;96943.38;;;10.25;84.77
34297;BME280;20564;42.902;25.336;2023-03-31T08:08:53;96947.97;;;10.51;82.97
34297;BME280;20564;42.902;25.336;2023-03-31T08:11:20;96945.53;;;10.67;83.01
34297;BME280;20564;42.902;25.336;2023-03-31T08:13:47;96938.13;;;10.80;81.62
34297;BME280;20564;42.902;25.336;2023-03-31T08:16:19;96943.41;;;10.98;78.78
34297;BME280;20564;42.902;25.336;2023-03-31T08:18:46;96937.78;;;11.11;78.99
34297;BME280;20564;42.902;25.336;2023-03-31T08:21:14;96932.59;;;11.19;77.40
34297;BME280;20564;42.902;25.336;2023-03-31T08:23:46;96929.28;;;11.35;76.61
34297;BME280;20564;42.902;25.336;2023-03-31T08:26:16;96927.22;;;11.47;76.22
34297;BME280;20564;42.902;25.336;2023-03-31T08:28:47;96931.44;;;11.57;75.70
34297;BME280;20564;42.902;25.336;2023-03-31T08:31:18;96927.44;;;11.71;76.06
34297;BME280;20564;42.902;25.336;2023-03-31T08:33:48;96923.50;;;11.75;75.19
34297;BME280;20564;42.902;25.336;2023-03-31T08:36:15;96917.22;;;11.94;74.41
34297;BME280;20564;42.902;25.336;2023-03-31T08:38:43;96913.50;;;12.05;74.18
34297;BME280;20564;42.902;25.336;2023-03-31T08:44:23;96898.03;;;12.44;72.62
34297;BME280;20564;42.902;25.336;2023-03-31T08:46:53;96903.53;;;12.59;70.94
34297;BME280;20564;42.902;25.336;2023-03-31T08:49:22;96893.00;;;12.67;71.99
34297;BME280;20564;42.902;25.336;2023-03-31T08:51:58;96898.00;;;12.87;68.96
34297;BME280;20564;42.902;25.336;2023-03-31T08:54:39;96892.56;;;12.96;69.60
34297;BME280;20564;42.902;25.336;2023-03-31T08:57:19;96895.72;;;13.08;67.73
34297;BME280;20564;42.902;25.336;2023-03-31T08:59:47;96882.53;;;13.16;67.66
34297;BME280;20564;42.902;25.336;2023-03-31T09:02:51;96869.03;;;13.27;66.89
34297;BME280;20564;42.902;25.336;2023-03-31T09:05:43;96862.75;;;13.37;65.84
34297;BME280;20564;42.902;25.336;2023-03-31T09:08:40;96860.09;;;13.53;65.64
34297;BME280;20564;42.902;25.336;2023-03-31T09:11:36;96852.81;;;13.71;66.24
34297;BME280;20564;42.902;25.336;2023-03-31T09:14:16;96841.19;;;13.97;64.72
34297;BME280;20564;42.902;25.336;2023-03-31T09:19:20;96841.81;;;13.99;63.66
34297;BME280;20564;42.902;25.336;2023-03-31T09:21:52;96838.88;;;14.33;63.57
34297;BME280;20564;42.902;25.336;2023-03-31T09:24:27;96829.69;;;14.60;62.23
34297;BME280;20564;42.902;25.336;2023-03-31T09:27:02;96824.13;;;14.78;60.35
34297;BME280;20564;42.902;25.336;2023-03-31T09:29:41;96818.22;;;14.91;61.93
34297;BME280;20564;42.902;25.336;2023-03-31T09:32:30;96811.38;;;15.19;59.89
34297;BME280;20564;42.902;25.336;2023-03-31T09:35:01;96804.53;;;15.63;59.49
34297;BME280;20564;42.902;25.336;2023-03-31T09:37:38;96797.41;;;16.08;58.33
34297;BME280;20564;42.902;25.336;2023-03-31T09:40:21;96793.28;;;16.35;55.57
34297;BME280;20564;42.902;25.336;2023-03-31T09:43:17;96784.25;;;16.51;53.66
34297;BME280;20564;42.902;25.336;2023-03-31T09:45:48;96780.59;;;16.73;54.63
34297;BME280;20564;42.902;25.336;2023-03-31T09:48:27;96772.75;;;17.01;52.93
34297;BME280;20564;42.902;25.336;2023-03-31T09:51:19;96769.19;;;17.16;51.96
34297;BME280;20564;42.902;25.336;2023-03-31T09:54:23;96767.19;;;17.24;50.25
34297;BME280;20564;42.902;25.336;2023-03-31T09:56:52;96761.94;;;17.31;50.08
34297;BME280;20564;42.902;25.336;2023-03-31T09:59:31;96769.06;;;17.58;50.29
34297;BME280;20564;42.902;25.336;2023-03-31T10:02:03;96755.81;;;17.93;49.61
34297;BME280;20564;42.902;25.336;2023-03-31T10:04:32;96768.28;;;18.34;48.42
34297;BME280;20564;42.902;25.336;2023-03-31T10:07:03;96751.00;;;18.71;47.29
34297;BME280;20564;42.902;25.336;2023-03-31T10:09:32;96761.84;;;18.70;47.43
34297;BME280;20564;42.902;25.336;2023-03-31T10:12:13;96763.66;;;18.63;46.52
34297;BME280;20564;42.902;25.336;2023-03-31T10:14:47;96747.56;;;18.29;46.45
34297;BME280;20564;42.902;25.336;2023-03-31T10:17:22;96743.91;;;17.89;46.85
34297;BME280;20564;42.902;25.336;2023-03-31T10:19:59;96747.03;;;17.65;47.21
34297;BME280;20564;42.902;25.336;2023-03-31T10:22:42;96745.47;;;17.77;47.18
34297;BME280;20564;42.902;25.336;2023-03-31T10:25:20;96742.19;;;18.16;46.85
34297;BME280;20564;42.902;25.336;2023-03-31T10:27:56;96737.56;;;18.38;47.85
34297;BME280;20564;42.902;25.336;2023-03-31T10:30:32;96740.06;;;18.60;46.15
34297;BME280;20564;42.902;25.336;2023-03-31T10:33:12;96751.56;;;18.67;45.48
34297;BME280;20564;42.902;25.336;2023-03-31T10:35:53;96738.66;;;18.64;43.99
34297;BME280;20564;42.902;25.336;2023-03-31T10:38:34;96739.09;;;18.13;44.25
34297;BME280;20564;42.902;25.336;2023-03-31T10:41:03;96734.94;;;17.97;44.78
34297;BME280;20564;42.902;25.336;2023-03-31T10:43:40;96739.81;;;17.58;45.68
34297;BME280;20564;42.902;25.336;2023-03-31T10:46:18;96725.09;;;17.28;46.17
34297;BME280;20564;42.902;25.336;2023-03-31T10:48:46;96729.38;;;17.01;46.78
34297;BME280;20564;42.902;25.336;2023-03-31T10:51:17;96730.06;;;16.88;46.84
34297;BME280;20564;42.902;25.336;2023-03-31T10:53:49;96732.94;;;16.86;47.33
34297;BME280;20564;42.902;25.336;2023-03-31T11:02:12;96732.25;;;16.63;47.65
34297;BME280;20564;42.902;25.336;2023-03-31T11:05:16;96725.78;;;16.29;48.02
34297;BME280;20564;42.902;25.336;2023-03-31T11:08:03;96720.13;;;16.18;48.82
34297;BME280;20564;42.902;25.336;2023-03-31T11:14:17;96726.03;;;15.98;48.65
34297;BME280;20564;42.902;25.336;2023-03-31T11:16:56;96722.09;;;15.94;48.99
34297;BME280;20564;42.902;25.336;2023-03-31T11:19:52;96706.34;;;16.07;49.09
34297;BME280;20564;42.902;25.336;2023-03-31T11:22:40;96708.13;;;16.22;48.56
34297;BME280;20564;42.902;25.336;2023-03-31T11:25:29;96705.44;;;16.36;49.10
34297;BME280;20564;42.902;25.336;2023-03-31T11:42:22;96684.06;;;16.66;48.23
34297;BME280;20564;42.902;25.336;2023-03-31T11:44:57;96676.66;;;16.61;48.17
34297;BME280;20564;42.902;25.336;2023-03-31T11:47:34;96666.66;;;16.63;48.25
34297;BME280;20564;42.902;25.336;2023-03-31T11:50:13;96675.91;;;16.68;48.33
34297;BME280;20564;42.902;25.336;2023-03-31T11:52:50;96669.56;;;16.69;48.82
34297;BME280;20564;42.902;25.336;2023-03-31T11:55:26;96665.91;;;16.70;48.39
34297;BME280;20564;42.902;25.336;2023-03-31T11:58:18;96661.03;;;16.73;49.38
34297;BME280;20564;42.902;25.336;2023-03-31T12:03:32;96645.06;;;16.95;47.72
34297;BME280;20564;42.902;25.336;2023-03-31T12:06:11;96647.63;;;17.09;48.11
34297;BME280;20564;42.902;25.336;2023-03-31T12:17:53;96636.72;;;17.32;48.32
34297;BME280;20564;42.902;25.336;2023-03-31T12:20:31;96627.44;;;17.56;47.82
34297;BME280;20564;42.902;25.336;2023-03-31T12:23:02;96631.53;;;17.66;46.89
34297;BME280;20564;42.902;25.336;2023-03-31T12:26:38;96625.28;;;17.80;46.84
34297;BME280;20564;42.902;25.336;2023-03-31T12:28:41;96616.13;;;17.89;46.04
34297;BME280;20564;42.902;25.336;2023-03-31T12:31:16;96613.66;;;17.94;45.98
34297;BME280;20564;42.902;25.336;2023-03-31T12:34:04;96618.16;;;17.87;45.37
34297;BME280;20564;42.902;25.336;2023-03-31T12:54:09;96596.66;;;17.47;45.89
34297;BME280;20564;42.902;25.336;2023-03-31T12:59:37;96583.94;;;17.36;46.78
34297;BME280;20564;42.902;25.336;2023-03-31T13:04:37;96598.34;;;17.48;46.18
34297;BME280;20564;42.902;25.336;2023-03-31T13:10:00;96582.53;;;17.88;45.11
34297;BME280;20564;42.902;25.336;2023-03-31T13:13:11;96578.25;;;18.00;44.20
34297;BME280;20564;42.902;25.336;2023-03-31T13:15:50;96589.91;;;17.93;44.33
34297;BME280;20564;42.902;25.336;2023-03-31T13:18:20;96577.03;;;18.10;44.46
34297;BME280;20564;42.902;25.336;2023-03-31T13:20:58;96573.97;;;18.13;44.19
34297;BME280;20564;42.902;25.336;2023-03-31T13:23:34;96564.53;;;18.03;43.86
34297;BME280;20564;42.902;25.336;2023-03-31T13:26:49;96565.13;;;17.99;43.64
34297;BME280;20564;42.902;25.336;2023-03-31T13:34:33;96552.03;;;18.04;44.02
34297;BME280;20564;42.902;25.336;2023-03-31T13:37:27;96547.94;;;18.08;44.14
34297;BME280;20564;42.902;25.336;2023-03-31T14:05:27;96540.81;;;17.47;45.94
34297;BME280;20564;42.902;25.336;2023-03-31T14:08:35;96533.00;;;17.39;45.89
34297;BME280;20564;42.902;25.336;2023-03-31T14:11:17;96534.25;;;17.43;46.24
34297;BME280;20564;42.902;25.336;2023-03-31T14:14:12;96521.75;;;17.37;46.16
34297;BME280;20564;42.902;25.336;2023-03-31T14:16:56;96525.88;;;17.46;46.33
34297;BME280;20564;42.902;25.336;2023-03-31T14:22:41;96519.03;;;17.24;46.38
34297;BME280;20564;42.902;25.336;2023-03-31T14:25:20;96514.50;;;17.18;46.74
34297;BME280;20564;42.902;25.336;2023-03-31T14:38:31;96508.69;;;17.49;46.79
34297;BME280;20564;42.902;25.336;2023-03-31T14:41:21;96496.22;;;17.56;46.04
34297;BME280;20564;42.902;25.336;2023-03-31T14:44:00;96507.88;;;17.62;45.59
34297;BME280;20564;42.902;25.336;2023-03-31T14:46:36;96495.81;;;17.52;45.32
34297;BME280;20564;42.902;25.336;2023-03-31T14:49:23;96509.09;;;17.52;45.37
34297;BME280;20564;42.902;25.336;2023-03-31T14:51:54;96505.84;;;17.57;45.63
34297;BME280;20564;42.902;25.336;2023-03-31T14:54:33;96499.72;;;17.63;44.83
34297;BME280;20564;42.902;25.336;2023-03-31T14:57:26;96507.50;;;17.71;45.29
34297;BME280;20564;42.902;25.336;2023-03-31T15:00:00;96511.44;;;17.75;45.64
34297;BME280;20564;42.902;25.336;2023-03-31T15:02:44;96509.97;;;17.73;45.43
34297;BME280;20564;42.902;25.336;2023-03-31T15:05:31;96510.38;;;17.70;45.59
34297;BME280;20564;42.902;25.336;2023-03-31T15:08:11;96502.56;;;17.48;46.16
34297;BME280;20564;42.902;25.336;2023-03-31T15:10:47;96512.78;;;17.45;46.37
34297;BME280;20564;42.902;25.336;2023-03-31T15:13:36;96507.19;;;17.33;47.07
34297;BME280;20564;42.902;25.336;2023-03-31T15:16:42;96502.28;;;17.30;46.97
34297;BME280;20564;42.902;25.336;2023-03-31T15:19:20;96503.72;;;17.32;47.21
34297;BME280;20564;42.902;25.336;2023-03-31T15:21:57;96512.34;;;17.41;47.75
34297;BME280;20564;42.902;25.336;2023-03-31T15:24:29;96506.63;;;17.44;47.09
34297;BME280;20564;42.902;25.336;2023-03-31T15:27:07;96500.28;;;17.45;46.40
34297;BME280;20564;42.902;25.336;2023-03-31T15:29:41;96511.13;;;17.37;46.07
34297;BME280;20564;42.902;25.336;2023-03-31T15:32:26;96507.03;;;17.41;47.18
34297;BME280;20564;42.902;25.336;2023-03-31T15:34:57;96505.41;;;17.53;46.17
34297;BME280;20564;42.902;25.336;2023-03-31T15:37:42;96502.09;;;17.38;46.95
34297;BME280;20564;42.902;25.336;2023-03-31T15:43:03;96506.63;;;17.51;46.76
34297;BME280;20564;42.902;25.336;2023-03-31T15:45:52;96513.53;;;17.32;47.03
34297;BME280;20564;42.902;25.336;2023-03-31T15:48:53;96503.66;;;17.13;46.40
34297;BME280;20564;42.902;25.336;2023-03-31T15:51:36;96505.97;;;16.87;46.72
34297;BME280;20564;42.902;25.336;2023-03-31T15:54:36;96509.09;;;16.70;47.61
34297;BME280;20564;42.902;25.336;2023-03-31T15:57:18;96513.50;;;16.56;47.43
34297;BME280;20564;42.902;25.336;2023-03-31T15:59:50;96515.50;;;16.47;47.65
34297;BME280;20564;42.902;25.336;2023-03-31T16:02:42;96510.94;;;16.34;48.71
34297;BME280;20564;42.902;25.336;2023-03-31T16:08:03;96509.63;;;16.24;50.38
34297;BME280;20564;42.902;25.336;2023-03-31T16:10:42;96505.44;;;16.14;50.05
34297;BME280;20564;42.902;25.336;2023-03-31T16:13:11;96510.16;;;16.12;49.81
34297;BME280;20564;42.902;25.336;2023-03-31T16:15:46;96513.06;;;15.96;51.20
34297;BME280;20564;42.902;25.336;2023-03-31T16:18:21;96504.13;;;15.82;51.58
34297;BME280;20564;42.902;25.336;2023-03-31T16:20:53;96501.41;;;15.76;51.87
34297;BME280;20564;42.902;25.336;2023-03-31T16:23:39;96497.59;;;15.63;52.79
34297;BME280;20564;42.902;25.336;2023-03-31T16:26:06;96508.06;;;15.50;53.28
34297;BME280;20564;42.902;25.336;2023-03-31T16:28:40;96511.06;;;15.26;54.86
34297;BME280;20564;42.902;25.336;2023-03-31T16:34:03;96512.56;;;14.84;56.68
34297;BME280;20564;42.902;25.336;2023-03-31T16:36:31;96509.00;;;14.62;56.83
34297;BME280;20564;42.902;25.336;2023-03-31T16:38:58;96512.97;;;14.43;57.48